sensor_id;sensor_type;location;lat;lon;timestamp;P1;durP1;ratioP1;P2;durP2;ratioP2
1452;SDS011;720;47.738;7.998;2024-03-17T00:02:24;1.50;;;1.27;;
1452;SDS011;720;47.738;7.998;2024-03-17T00:04:57;1.98;;;1.77;;
1452;SDS011;720;47.738;7.998;2024-03-17T00:07:23;1.30;;;1.20;;
1452;SDS011;720;47.738;7.998;2024-03-17T00:09:52;1.65;;;1.55;;
1452;SDS011;720;47.738;7.998;2024-03-17T00:12:18;1.87;;;1.77;;
1452;SDS011;720;47.738;7.998;2024-03-17T00:14:43;2.07;;;1.60;;
1452;SDS011;720;47.738;7.998;2024-03-17T00:17:10;1.52;;;1.35;;
1452;SDS011;720;47.738;7.998;2024-03-17T00:19:38;1.10;;;1.10;;
1452;SDS011;720;47.738;7.998;2024-03-17T00:22:04;1.57;;;1.17;;
1452;SDS011;720;47.738;7.998;2024-03-17T00:24:32;1.48;;;1.10;;
1452;SDS011;720;47.738;7.998;2024-03-17T00:27:01;1.70;;;1.60;;
1452;SDS011;720;47.738;7.998;2024-03-17T00:29:28;3.15;;;1.25;;
1452;SDS011;720;47.738;7.998;2024-03-17T00:31:54;2.70;;;1.87;;
1452;SDS011;720;47.738;7.998;2024-03-17T00:34:20;1.63;;;1.42;;
1452;SDS011;720;47.738;7.998;2024-03-17T00:36:50;1.73;;;1.10;;
1452;SDS011;720;47.738;7.998;2024-03-17T00:39:16;2.33;;;2.20;;
1452;SDS011;720;47.738;7.998;2024-03-17T00:41:43;2.20;;;1.90;;
1452;SDS011;720;47.738;7.998;2024-03-17T00:44:09;3.85;;;2.95;;
1452;SDS011;720;47.738;7.998;2024-03-17T00:46:34;4.00;;;2.23;;
1452;SDS011;720;47.738;7.998;2024-03-17T00:49:00;2.40;;;2.20;;
1452;SDS011;720;47.738;7.998;2024-03-17T00:51:26;9.47;;;2.27;;
1452;SDS011;720;47.738;7.998;2024-03-17T00:53:51;3.57;;;1.73;;
1452;SDS011;720;47.738;7.998;2024-03-17T00:56:17;6.33;;;1.53;;
1452;SDS011;720;47.738;7.998;2024-03-17T00:58:43;1.77;;;1.67;;
1452;SDS011;720;47.738;7.998;2024-03-17T01:01:10;2.00;;;1.20;;
1452;SDS011;720;47.738;7.998;2024-03-17T01:03:36;2.40;;;1.07;;
1452;SDS011;720;47.738;7.998;2024-03-17T01:06:05;0.90;;;0.90;;
1452;SDS011;720;47.738;7.998;2024-03-17T01:08:30;1.55;;;1.10;;
1452;SDS011;720;47.738;7.998;2024-03-17T01:10:56;1.73;;;1.00;;
1452;SDS011;720;47.738;7.998;2024-03-17T01:13:23;2.60;;;1.27;;
1452;SDS011;720;47.738;7.998;2024-03-17T01:15:52;0.80;;;0.80;;
1452;SDS011;720;47.738;7.998;2024-03-17T01:18:18;1.88;;;1.35;;
1452;SDS011;720;47.738;7.998;2024-03-17T01:20:44;2.10;;;2.00;;
1452;SDS011;720;47.738;7.998;2024-03-17T01:23:09;3.43;;;2.13;;
1452;SDS011;720;47.738;7.998;2024-03-17T01:25:35;2.43;;;1.47;;
1452;SDS011;720;47.738;7.998;2024-03-17T01:28:02;1.35;;;1.17;;
1452;SDS011;720;47.738;7.998;2024-03-17T01:30:28;3.10;;;1.88;;
1452;SDS011;720;47.738;7.998;2024-03-17T01:32:54;1.10;;;1.10;;
1452;SDS011;720;47.738;7.998;2024-03-17T01:35:20;3.53;;;1.10;;
1452;SDS011;720;47.738;7.998;2024-03-17T01:37:46;1.10;;;1.10;;
1452;SDS011;720;47.738;7.998;2024-03-17T01:40:12;2.30;;;2.10;;
1452;SDS011;720;47.738;7.998;2024-03-17T01:42:38;3.97;;;1.70;;
1452;SDS011;720;47.738;7.998;2024-03-17T01:47:42;2.85;;;1.60;;
1452;SDS011;720;47.738;7.998;2024-03-17T01:50:09;3.45;;;1.33;;
1452;SDS011;720;47.738;7.998;2024-03-17T01:52:36;2.50;;;1.42;;
1452;SDS011;720;47.738;7.998;2024-03-17T01:55:03;3.13;;;1.40;;
1452;SDS011;720;47.738;7.998;2024-03-17T01:57:29;1.20;;;1.10;;
1452;SDS011;720;47.738;7.998;2024-03-17T01:59:55;1.43;;;1.33;;
1452;SDS011;720;47.738;7.998;2024-03-17T02:02:22;3.33;;;1.85;;
1452;SDS011;720;47.738;7.998;2024-03-17T02:04:47;1.97;;;1.80;;
1452;SDS011;720;47.738;7.998;2024-03-17T02:07:14;2.78;;;1.40;;
1452;SDS011;720;47.738;7.998;2024-03-17T02:09:40;1.50;;;1.15;;
1452;SDS011;720;47.738;7.998;2024-03-17T02:12:07;1.88;;;1.20;;
1452;SDS011;720;47.738;7.998;2024-03-17T02:14:33;0.93;;;0.93;;
1452;SDS011;720;47.738;7.998;2024-03-17T02:16:59;1.60;;;1.47;;
1452;SDS011;720;47.738;7.998;2024-03-17T02:19:25;4.10;;;1.27;;
1452;SDS011;720;47.738;7.998;2024-03-17T02:21:50;0.87;;;0.80;;
1452;SDS011;720;47.738;7.998;2024-03-17T02:24:16;4.53;;;1.83;;
1452;SDS011;720;47.738;7.998;2024-03-17T02:26:41;0.90;;;0.90;;
1452;SDS011;720;47.738;7.998;2024-03-17T02:29:07;2.83;;;1.50;;
1452;SDS011;720;47.738;7.998;2024-03-17T02:31:32;3.53;;;2.03;;
1452;SDS011;720;47.738;7.998;2024-03-17T02:33:58;2.27;;;2.07;;
1452;SDS011;720;47.738;7.998;2024-03-17T02:36:24;2.70;;;1.20;;
1452;SDS011;720;47.738;7.998;2024-03-17T02:38:49;2.33;;;2.10;;
1452;SDS011;720;47.738;7.998;2024-03-17T02:41:33;1.95;;;1.60;;
1452;SDS011;720;47.738;7.998;2024-03-17T02:43:59;1.83;;;1.47;;
1452;SDS011;720;47.738;7.998;2024-03-17T02:46:25;1.55;;;1.45;;
1452;SDS011;720;47.738;7.998;2024-03-17T02:48:51;4.90;;;2.10;;
1452;SDS011;720;47.738;7.998;2024-03-17T02:51:18;2.35;;;2.05;;
1452;SDS011;720;47.738;7.998;2024-03-17T02:53:46;1.10;;;1.10;;
1452;SDS011;720;47.738;7.998;2024-03-17T02:56:13;2.58;;;2.38;;
1452;SDS011;720;47.738;7.998;2024-03-17T02:58:41;1.45;;;1.05;;
1452;SDS011;720;47.738;7.998;2024-03-17T03:01:08;1.70;;;1.00;;
1452;SDS011;720;47.738;7.998;2024-03-17T03:03:37;3.17;;;1.48;;
1452;SDS011;720;47.738;7.998;2024-03-17T03:06:02;1.20;;;1.10;;
1452;SDS011;720;47.738;7.998;2024-03-17T03:08:36;1.15;;;1.13;;
1452;SDS011;720;47.738;7.998;2024-03-17T03:11:09;1.83;;;1.20;;
1452;SDS011;720;47.738;7.998;2024-03-17T03:13:40;2.13;;;1.65;;
1452;SDS011;720;47.738;7.998;2024-03-17T03:16:06;2.60;;;1.63;;
1452;SDS011;720;47.738;7.998;2024-03-17T03:18:33;1.38;;;1.25;;
1452;SDS011;720;47.738;7.998;2024-03-17T03:21:00;1.45;;;1.35;;
1452;SDS011;720;47.738;7.998;2024-03-17T03:23:25;2.93;;;1.70;;
1452;SDS011;720;47.738;7.998;2024-03-17T03:25:55;3.72;;;2.25;;
1452;SDS011;720;47.738;7.998;2024-03-17T03:28:22;1.50;;;0.88;;
1452;SDS011;720;47.738;7.998;2024-03-17T03:30:48;2.80;;;1.88;;
1452;SDS011;720;47.738;7.998;2024-03-17T03:33:14;2.47;;;1.40;;
1452;SDS011;720;47.738;7.998;2024-03-17T03:35:40;4.27;;;1.50;;
1452;SDS011;720;47.738;7.998;2024-03-17T03:38:05;3.87;;;1.60;;
1452;SDS011;720;47.738;7.998;2024-03-17T03:40:31;1.93;;;0.90;;
1452;SDS011;720;47.738;7.998;2024-03-17T03:42:57;1.30;;;1.20;;
1452;SDS011;720;47.738;7.998;2024-03-17T03:45:23;3.87;;;1.53;;
1452;SDS011;720;47.738;7.998;2024-03-17T03:47:50;1.50;;;0.90;;
1452;SDS011;720;47.738;7.998;2024-03-17T03:50:17;0.88;;;0.88;;
1452;SDS011;720;47.738;7.998;2024-03-17T03:52:44;0.82;;;0.82;;
1452;SDS011;720;47.738;7.998;2024-03-17T03:55:11;1.30;;;1.20;;
1452;SDS011;720;47.738;7.998;2024-03-17T03:57:40;1.35;;;1.20;;
1452;SDS011;720;47.738;7.998;2024-03-17T04:00:13;2.53;;;1.00;;
1452;SDS011;720;47.738;7.998;2024-03-17T04:02:40;1.10;;;0.75;;
1452;SDS011;720;47.738;7.998;2024-03-17T04:05:06;2.88;;;2.22;;
1452;SDS011;720;47.738;7.998;2024-03-17T04:07:33;7.03;;;1.92;;
1452;SDS011;720;47.738;7.998;2024-03-17T04:09:59;3.40;;;1.75;;
1452;SDS011;720;47.738;7.998;2024-03-17T04:12:25;4.22;;;1.60;;
1452;SDS011;720;47.738;7.998;2024-03-17T04:14:52;5.85;;;1.77;;
1452;SDS011;720;47.738;7.998;2024-03-17T04:17:19;1.73;;;1.30;;
1452;SDS011;720;47.738;7.998;2024-03-17T04:19:46;2.40;;;1.50;;
1452;SDS011;720;47.738;7.998;2024-03-17T04:22:13;2.25;;;1.42;;
1452;SDS011;720;47.738;7.998;2024-03-17T04:24:40;1.63;;;1.50;;
1452;SDS011;720;47.738;7.998;2024-03-17T04:27:05;2.10;;;1.50;;
1452;SDS011;720;47.738;7.998;2024-03-17T04:29:31;2.83;;;1.57;;
1452;SDS011;720;47.738;7.998;2024-03-17T04:31:57;2.93;;;1.70;;
1452;SDS011;720;47.738;7.998;2024-03-17T04:34:22;1.47;;;1.27;;
1452;SDS011;720;47.738;7.998;2024-03-17T04:36:48;2.87;;;1.30;;
1452;SDS011;720;47.738;7.998;2024-03-17T04:39:14;1.25;;;1.15;;
1452;SDS011;720;47.738;7.998;2024-03-17T04:41:40;3.10;;;0.93;;
1452;SDS011;720;47.738;7.998;2024-03-17T04:44:06;0.93;;;0.93;;
1452;SDS011;720;47.738;7.998;2024-03-17T04:46:32;2.93;;;1.10;;
1452;SDS011;720;47.738;7.998;2024-03-17T04:48:57;1.98;;;0.90;;
1452;SDS011;720;47.738;7.998;2024-03-17T04:51:23;0.80;;;0.80;;
1452;SDS011;720;47.738;7.998;2024-03-17T04:53:49;2.33;;;0.70;;
1452;SDS011;720;47.738;7.998;2024-03-17T04:56:14;0.97;;;0.97;;
1452;SDS011;720;47.738;7.998;2024-03-17T04:58:40;1.10;;;1.00;;
1452;SDS011;720;47.738;7.998;2024-03-17T05:01:09;0.80;;;0.80;;
1452;SDS011;720;47.738;7.998;2024-03-17T05:03:34;3.33;;;2.50;;
1452;SDS011;720;47.738;7.998;2024-03-17T05:06:01;1.30;;;0.83;;
1452;SDS011;720;47.738;7.998;2024-03-17T05:08:30;2.97;;;0.70;;
1452;SDS011;720;47.738;7.998;2024-03-17T05:10:57;3.53;;;1.33;;
1452;SDS011;720;47.738;7.998;2024-03-17T05:13:29;1.45;;;1.35;;
1452;SDS011;720;47.738;7.998;2024-03-17T05:15:56;1.00;;;1.00;;
1452;SDS011;720;47.738;7.998;2024-03-17T05:18:21;1.40;;;1.13;;
1452;SDS011;720;47.738;7.998;2024-03-17T05:20:59;1.98;;;1.50;;
1452;SDS011;720;47.738;7.998;2024-03-17T05:23:26;3.63;;;1.02;;
1452;SDS011;720;47.738;7.998;2024-03-17T05:25:56;2.05;;;1.40;;
1452;SDS011;720;47.738;7.998;2024-03-17T05:28:23;1.88;;;1.13;;
1452;SDS011;720;47.738;7.998;2024-03-17T05:30:50;5.78;;;1.30;;
1452;SDS011;720;47.738;7.998;2024-03-17T05:33:25;1.93;;;1.83;;
1452;SDS011;720;47.738;7.998;2024-03-17T05:35:52;3.67;;;0.90;;
1452;SDS011;720;47.738;7.998;2024-03-17T05:38:21;1.20;;;1.10;;
1452;SDS011;720;47.738;7.998;2024-03-17T05:40:55;2.38;;;1.30;;
1452;SDS011;720;47.738;7.998;2024-03-17T05:43:22;3.17;;;2.30;;
1452;SDS011;720;47.738;7.998;2024-03-17T05:45:56;0.82;;;0.82;;
1452;SDS011;720;47.738;7.998;2024-03-17T05:48:22;0.93;;;0.73;;
1452;SDS011;720;47.738;7.998;2024-03-17T05:50:49;0.70;;;0.70;;
1452;SDS011;720;47.738;7.998;2024-03-17T05:53:16;0.80;;;0.80;;
1452;SDS011;720;47.738;7.998;2024-03-17T05:55:43;0.95;;;0.90;;
1452;SDS011;720;47.738;7.998;2024-03-17T05:58:10;1.58;;;1.08;;
1452;SDS011;720;47.738;7.998;2024-03-17T06:00:36;0.80;;;0.80;;
1452;SDS011;720;47.738;7.998;2024-03-17T06:03:03;0.93;;;0.93;;
1452;SDS011;720;47.738;7.998;2024-03-17T06:05:37;0.60;;;0.60;;
1452;SDS011;720;47.738;7.998;2024-03-17T06:08:05;2.85;;;1.50;;
1452;SDS011;720;47.738;7.998;2024-03-17T06:10:33;2.80;;;1.00;;
1452;SDS011;720;47.738;7.998;2024-03-17T06:13:00;1.58;;;1.48;;
1452;SDS011;720;47.738;7.998;2024-03-17T06:15:26;0.60;;;0.60;;
1452;SDS011;720;47.738;7.998;2024-03-17T06:17:52;0.70;;;0.70;;
1452;SDS011;720;47.738;7.998;2024-03-17T06:20:24;1.27;;;1.17;;
1452;SDS011;720;47.738;7.998;2024-03-17T06:22:52;1.08;;;0.93;;
1452;SDS011;720;47.738;7.998;2024-03-17T06:25:18;1.60;;;1.05;;
1452;SDS011;720;47.738;7.998;2024-03-17T06:27:44;0.80;;;0.80;;
1452;SDS011;720;47.738;7.998;2024-03-17T06:30:13;2.15;;;1.50;;
1452;SDS011;720;47.738;7.998;2024-03-17T06:32:39;2.20;;;2.00;;
1452;SDS011;720;47.738;7.998;2024-03-17T06:35:10;1.73;;;1.63;;
1452;SDS011;720;47.738;7.998;2024-03-17T06:37:43;2.35;;;1.08;;
1452;SDS011;720;47.738;7.998;2024-03-17T06:40:13;3.42;;;1.30;;
1452;SDS011;720;47.738;7.998;2024-03-17T06:42:39;1.80;;;1.38;;
1452;SDS011;720;47.738;7.998;2024-03-17T06:45:05;1.40;;;1.27;;
1452;SDS011;720;47.738;7.998;2024-03-17T06:47:35;2.45;;;1.30;;
1452;SDS011;720;47.738;7.998;2024-03-17T06:50:05;1.63;;;1.52;;
1452;SDS011;720;47.738;7.998;2024-03-17T06:52:34;1.63;;;1.52;;
1452;SDS011;720;47.738;7.998;2024-03-17T06:55:01;2.25;;;0.95;;
1452;SDS011;720;47.738;7.998;2024-03-17T06:57:26;4.83;;;1.90;;
1452;SDS011;720;47.738;7.998;2024-03-17T06:59:52;1.20;;;1.10;;
1452;SDS011;720;47.738;7.998;2024-03-17T07:02:18;2.30;;;1.60;;
1452;SDS011;720;47.738;7.998;2024-03-17T07:04:45;2.80;;;1.65;;
1452;SDS011;720;47.738;7.998;2024-03-17T07:07:11;2.40;;;1.90;;
1452;SDS011;720;47.738;7.998;2024-03-17T07:09:38;2.10;;;2.00;;
1452;SDS011;720;47.738;7.998;2024-03-17T07:12:05;4.03;;;2.73;;
1452;SDS011;720;47.738;7.998;2024-03-17T07:14:32;6.53;;;4.20;;
1452;SDS011;720;47.738;7.998;2024-03-17T07:16:58;6.83;;;4.17;;
1452;SDS011;720;47.738;7.998;2024-03-17T07:19:23;6.10;;;3.30;;
1452;SDS011;720;47.738;7.998;2024-03-17T07:21:49;5.13;;;2.17;;
1452;SDS011;720;47.738;7.998;2024-03-17T07:24:15;2.93;;;1.67;;
1452;SDS011;720;47.738;7.998;2024-03-17T07:26:41;3.30;;;1.77;;
1452;SDS011;720;47.738;7.998;2024-03-17T07:29:06;4.90;;;2.10;;
1452;SDS011;720;47.738;7.998;2024-03-17T07:31:33;2.20;;;1.93;;
1452;SDS011;720;47.738;7.998;2024-03-17T07:33:59;1.57;;;1.47;;
1452;SDS011;720;47.738;7.998;2024-03-17T07:36:24;2.23;;;1.20;;
1452;SDS011;720;47.738;7.998;2024-03-17T07:38:50;2.03;;;1.10;;
1452;SDS011;720;47.738;7.998;2024-03-17T07:41:17;2.40;;;1.47;;
1452;SDS011;720;47.738;7.998;2024-03-17T07:43:44;1.30;;;1.20;;
1452;SDS011;720;47.738;7.998;2024-03-17T07:46:12;1.20;;;1.10;;
1452;SDS011;720;47.738;7.998;2024-03-17T07:48:38;2.90;;;1.40;;
1452;SDS011;720;47.738;7.998;2024-03-17T07:51:12;3.33;;;1.50;;
1452;SDS011;720;47.738;7.998;2024-03-17T07:53:40;2.00;;;1.80;;
1452;SDS011;720;47.738;7.998;2024-03-17T07:56:07;5.67;;;1.90;;
1452;SDS011;720;47.738;7.998;2024-03-17T07:58:34;3.37;;;2.33;;
1452;SDS011;720;47.738;7.998;2024-03-17T08:01:03;4.90;;;2.60;;
1452;SDS011;720;47.738;7.998;2024-03-17T08:03:31;2.40;;;2.20;;
1452;SDS011;720;47.738;7.998;2024-03-17T08:05:58;2.13;;;1.80;;
1452;SDS011;720;47.738;7.998;2024-03-17T08:08:24;2.60;;;1.37;;
1452;SDS011;720;47.738;7.998;2024-03-17T08:10:50;1.33;;;1.03;;
1452;SDS011;720;47.738;7.998;2024-03-17T08:13:16;4.77;;;1.90;;
1452;SDS011;720;47.738;7.998;2024-03-17T08:15:43;3.83;;;2.20;;
1452;SDS011;720;47.738;7.998;2024-03-17T08:18:09;3.53;;;1.83;;
1452;SDS011;720;47.738;7.998;2024-03-17T08:20:41;3.67;;;2.57;;
1452;SDS011;720;47.738;7.998;2024-03-17T08:23:08;4.40;;;2.40;;
1452;SDS011;720;47.738;7.998;2024-03-17T08:25:36;7.20;;;4.93;;
1452;SDS011;720;47.738;7.998;2024-03-17T08:28:02;4.13;;;2.97;;
1452;SDS011;720;47.738;7.998;2024-03-17T08:30:28;5.87;;;2.70;;
1452;SDS011;720;47.738;7.998;2024-03-17T08:32:55;6.80;;;4.17;;
1452;SDS011;720;47.738;7.998;2024-03-17T08:35:24;5.27;;;3.87;;
1452;SDS011;720;47.738;7.998;2024-03-17T08:37:49;8.30;;;3.90;;
1452;SDS011;720;47.738;7.998;2024-03-17T08:40:25;14.23;;;6.23;;
1452;SDS011;720;47.738;7.998;2024-03-17T08:42:50;11.97;;;7.80;;
1452;SDS011;720;47.738;7.998;2024-03-17T08:45:16;3.80;;;2.27;;
1452;SDS011;720;47.738;7.998;2024-03-17T08:47:42;3.63;;;0.93;;
1452;SDS011;720;47.738;7.998;2024-03-17T08:50:08;1.90;;;1.30;;
1452;SDS011;720;47.738;7.998;2024-03-17T08:52:37;1.60;;;1.50;;
1452;SDS011;720;47.738;7.998;2024-03-17T08:55:03;1.53;;;0.97;;
1452;SDS011;720;47.738;7.998;2024-03-17T08:57:34;1.07;;;0.90;;
1452;SDS011;720;47.738;7.998;2024-03-17T09:00:00;2.23;;;1.10;;
1452;SDS011;720;47.738;7.998;2024-03-17T09:02:26;3.10;;;1.57;;
1452;SDS011;720;47.738;7.998;2024-03-17T09:04:51;4.00;;;1.33;;
1452;SDS011;720;47.738;7.998;2024-03-17T09:07:17;4.93;;;1.83;;
1452;SDS011;720;47.738;7.998;2024-03-17T09:09:43;2.23;;;1.43;;
1452;SDS011;720;47.738;7.998;2024-03-17T09:12:08;4.70;;;2.13;;
1452;SDS011;720;47.738;7.998;2024-03-17T09:14:34;0.87;;;0.87;;
1452;SDS011;720;47.738;7.998;2024-03-17T09:17:00;4.23;;;1.70;;
1452;SDS011;720;47.738;7.998;2024-03-17T09:19:26;4.97;;;2.37;;
1452;SDS011;720;47.738;7.998;2024-03-17T09:21:54;1.93;;;1.00;;
1452;SDS011;720;47.738;7.998;2024-03-17T09:24:19;3.53;;;1.50;;
1452;SDS011;720;47.738;7.998;2024-03-17T09:26:45;1.13;;;1.13;;
1452;SDS011;720;47.738;7.998;2024-03-17T09:29:12;7.27;;;2.30;;
1452;SDS011;720;47.738;7.998;2024-03-17T09:31:38;2.30;;;1.43;;
1452;SDS011;720;47.738;7.998;2024-03-17T09:34:06;1.60;;;0.97;;
1452;SDS011;720;47.738;7.998;2024-03-17T09:36:32;1.40;;;1.20;;
1452;SDS011;720;47.738;7.998;2024-03-17T09:38:58;3.80;;;1.80;;
1452;SDS011;720;47.738;7.998;2024-03-17T09:41:25;1.37;;;0.83;;
1452;SDS011;720;47.738;7.998;2024-03-17T09:43:54;1.50;;;1.27;;
1452;SDS011;720;47.738;7.998;2024-03-17T09:46:25;3.57;;;1.60;;
1452;SDS011;720;47.738;7.998;2024-03-17T09:48:52;3.80;;;1.80;;
1452;SDS011;720;47.738;7.998;2024-03-17T09:51:23;3.17;;;1.60;;
1452;SDS011;720;47.738;7.998;2024-03-17T09:53:50;1.10;;;1.10;;
1452;SDS011;720;47.738;7.998;2024-03-17T09:56:17;2.83;;;1.33;;
1452;SDS011;720;47.738;7.998;2024-03-17T09:58:48;1.10;;;1.10;;
1452;SDS011;720;47.738;7.998;2024-03-17T10:01:14;1.57;;;0.90;;
1452;SDS011;720;47.738;7.998;2024-03-17T10:03:41;1.40;;;1.30;;
1452;SDS011;720;47.738;7.998;2024-03-17T10:06:20;7.73;;;1.47;;
1452;SDS011;720;47.738;7.998;2024-03-17T10:08:47;3.20;;;1.33;;
1452;SDS011;720;47.738;7.998;2024-03-17T10:11:15;1.23;;;0.90;;
1452;SDS011;720;47.738;7.998;2024-03-17T10:13:43;2.93;;;1.87;;
1452;SDS011;720;47.738;7.998;2024-03-17T10:19:14;2.30;;;1.50;;
1452;SDS011;720;47.738;7.998;2024-03-17T10:21:41;1.67;;;1.00;;
1452;SDS011;720;47.738;7.998;2024-03-17T10:24:12;7.50;;;1.47;;
1452;SDS011;720;47.738;7.998;2024-03-17T10:29:04;1.60;;;1.50;;
1452;SDS011;720;47.738;7.998;2024-03-17T10:31:44;5.00;;;1.50;;
1452;SDS011;720;47.738;7.998;2024-03-17T10:34:12;1.70;;;1.60;;
1452;SDS011;720;47.738;7.998;2024-03-17T10:36:41;1.50;;;1.33;;
1452;SDS011;720;47.738;7.998;2024-03-17T10:39:17;1.87;;;1.10;;
1452;SDS011;720;47.738;7.998;2024-03-17T10:41:54;3.33;;;1.50;;
1452;SDS011;720;47.738;7.998;2024-03-17T10:44:23;1.73;;;0.93;;
1452;SDS011;720;47.738;7.998;2024-03-17T10:46:48;2.47;;;1.13;;
1452;SDS011;720;47.738;7.998;2024-03-17T10:49:16;3.60;;;1.70;;
1452;SDS011;720;47.738;7.998;2024-03-17T10:51:42;1.10;;;0.80;;
1452;SDS011;720;47.738;7.998;2024-03-17T10:54:14;2.87;;;1.07;;
1452;SDS011;720;47.738;7.998;2024-03-17T10:56:50;4.63;;;1.90;;
1452;SDS011;720;47.738;7.998;2024-03-17T10:59:16;1.03;;;0.93;;
1452;SDS011;720;47.738;7.998;2024-03-17T11:01:47;2.20;;;1.10;;
1452;SDS011;720;47.738;7.998;2024-03-17T11:04:15;11.10;;;1.37;;
1452;SDS011;720;47.738;7.998;2024-03-17T11:06:42;3.90;;;1.00;;
1452;SDS011;720;47.738;7.998;2024-03-17T11:09:09;1.80;;;1.07;;
1452;SDS011;720;47.738;7.998;2024-03-17T11:11:39;1.20;;;1.10;;
1452;SDS011;720;47.738;7.998;2024-03-17T11:14:19;2.73;;;1.00;;
1452;SDS011;720;47.738;7.998;2024-03-17T11:16:45;4.93;;;1.30;;
1452;SDS011;720;47.738;7.998;2024-03-17T11:19:15;4.03;;;1.40;;
1452;SDS011;720;47.738;7.998;2024-03-17T11:21:42;2.73;;;1.03;;
1452;SDS011;720;47.738;7.998;2024-03-17T11:24:17;1.27;;;1.17;;
1452;SDS011;720;47.738;7.998;2024-03-17T11:26:45;2.70;;;0.90;;
1452;SDS011;720;47.738;7.998;2024-03-17T11:29:29;5.40;;;1.40;;
1452;SDS011;720;47.738;7.998;2024-03-17T11:31:57;2.13;;;1.50;;
1452;SDS011;720;47.738;7.998;2024-03-17T11:36:53;4.87;;;1.30;;
1452;SDS011;720;47.738;7.998;2024-03-17T11:39:19;1.90;;;0.77;;
1452;SDS011;720;47.738;7.998;2024-03-17T11:41:50;4.50;;;1.60;;
1452;SDS011;720;47.738;7.998;2024-03-17T11:46:56;3.70;;;1.30;;
1452;SDS011;720;47.738;7.998;2024-03-17T11:49:25;2.10;;;1.40;;
1452;SDS011;720;47.738;7.998;2024-03-17T11:51:57;8.03;;;1.30;;
1452;SDS011;720;47.738;7.998;2024-03-17T11:54:28;1.77;;;0.87;;
1452;SDS011;720;47.738;7.998;2024-03-17T11:56:55;0.73;;;0.70;;
1452;SDS011;720;47.738;7.998;2024-03-17T11:59:32;1.27;;;1.17;;
1452;SDS011;720;47.738;7.998;2024-03-17T12:01:58;2.73;;;1.17;;
1452;SDS011;720;47.738;7.998;2024-03-17T12:04:24;3.17;;;1.07;;
1452;SDS011;720;47.738;7.998;2024-03-17T12:06:57;4.30;;;1.23;;
1452;SDS011;720;47.738;7.998;2024-03-17T12:09:30;4.07;;;0.90;;
1452;SDS011;720;47.738;7.998;2024-03-17T12:14:35;1.90;;;1.13;;
1452;SDS011;720;47.738;7.998;2024-03-17T12:17:02;3.13;;;1.40;;
1452;SDS011;720;47.738;7.998;2024-03-17T12:19:29;1.47;;;0.87;;
1452;SDS011;720;47.738;7.998;2024-03-17T12:21:56;0.97;;;0.70;;
1452;SDS011;720;47.738;7.998;2024-03-17T12:24:25;3.50;;;1.60;;
1452;SDS011;720;47.738;7.998;2024-03-17T12:26:52;3.83;;;1.53;;
1452;SDS011;720;47.738;7.998;2024-03-17T12:29:37;1.00;;;1.00;;
1452;SDS011;720;47.738;7.998;2024-03-17T12:32:19;1.90;;;1.30;;
1452;SDS011;720;47.738;7.998;2024-03-17T12:34:47;5.13;;;1.03;;
1452;SDS011;720;47.738;7.998;2024-03-17T12:37:21;3.20;;;0.90;;
1452;SDS011;720;47.738;7.998;2024-03-17T12:39:48;4.60;;;1.30;;
1452;SDS011;720;47.738;7.998;2024-03-17T12:42:14;2.90;;;0.90;;
1452;SDS011;720;47.738;7.998;2024-03-17T12:44:48;2.20;;;0.87;;
1452;SDS011;720;47.738;7.998;2024-03-17T12:47:19;4.53;;;1.50;;
1452;SDS011;720;47.738;7.998;2024-03-17T12:49:45;1.90;;;1.13;;
1452;SDS011;720;47.738;7.998;2024-03-17T12:52:18;1.20;;;1.10;;
1452;SDS011;720;47.738;7.998;2024-03-17T12:54:45;2.77;;;1.13;;
1452;SDS011;720;47.738;7.998;2024-03-17T12:57:41;7.10;;;2.23;;
1452;SDS011;720;47.738;7.998;2024-03-17T13:00:25;4.40;;;1.60;;
1452;SDS011;720;47.738;7.998;2024-03-17T13:02:57;3.40;;;0.80;;
1452;SDS011;720;47.738;7.998;2024-03-17T13:05:30;1.53;;;1.20;;
1452;SDS011;720;47.738;7.998;2024-03-17T13:07:56;1.37;;;0.90;;
1452;SDS011;720;47.738;7.998;2024-03-17T13:10:23;2.27;;;1.60;;
1452;SDS011;720;47.738;7.998;2024-03-17T13:13:00;2.47;;;1.97;;
1452;SDS011;720;47.738;7.998;2024-03-17T13:15:27;4.40;;;1.10;;
1452;SDS011;720;47.738;7.998;2024-03-17T13:17:55;1.53;;;0.87;;
1452;SDS011;720;47.738;7.998;2024-03-17T13:20:21;3.60;;;1.90;;
1452;SDS011;720;47.738;7.998;2024-03-17T13:22:47;1.43;;;0.90;;
1452;SDS011;720;47.738;7.998;2024-03-17T13:25:13;2.50;;;1.03;;
1452;SDS011;720;47.738;7.998;2024-03-17T13:27:41;0.80;;;0.80;;
1452;SDS011;720;47.738;7.998;2024-03-17T13:30:08;4.30;;;0.80;;
1452;SDS011;720;47.738;7.998;2024-03-17T13:32:34;4.47;;;1.23;;
1452;SDS011;720;47.738;7.998;2024-03-17T13:35:01;3.47;;;1.40;;
1452;SDS011;720;47.738;7.998;2024-03-17T13:37:27;0.80;;;0.80;;
1452;SDS011;720;47.738;7.998;2024-03-17T13:39:53;1.67;;;0.90;;
1452;SDS011;720;47.738;7.998;2024-03-17T13:42:20;0.87;;;0.73;;
1452;SDS011;720;47.738;7.998;2024-03-17T13:44:46;2.70;;;1.10;;
1452;SDS011;720;47.738;7.998;2024-03-17T13:47:12;1.37;;;0.93;;
1452;SDS011;720;47.738;7.998;2024-03-17T13:49:39;3.73;;;1.27;;
1452;SDS011;720;47.738;7.998;2024-03-17T13:52:05;1.37;;;0.90;;
1452;SDS011;720;47.738;7.998;2024-03-17T13:54:31;1.43;;;0.60;;
1452;SDS011;720;47.738;7.998;2024-03-17T13:56:57;1.00;;;1.00;;
1452;SDS011;720;47.738;7.998;2024-03-17T13:59:23;1.03;;;0.80;;
1452;SDS011;720;47.738;7.998;2024-03-17T14:01:50;0.40;;;0.40;;
1452;SDS011;720;47.738;7.998;2024-03-17T14:04:16;0.70;;;0.70;;
1452;SDS011;720;47.738;7.998;2024-03-17T14:06:45;0.80;;;0.60;;
1452;SDS011;720;47.738;7.998;2024-03-17T14:09:14;2.40;;;0.77;;
1452;SDS011;720;47.738;7.998;2024-03-17T14:11:44;1.53;;;1.17;;
1452;SDS011;720;47.738;7.998;2024-03-17T14:14:10;0.63;;;0.63;;
1452;SDS011;720;47.738;7.998;2024-03-17T14:16:37;0.50;;;0.40;;
1452;SDS011;720;47.738;7.998;2024-03-17T14:19:03;1.33;;;1.23;;
1452;SDS011;720;47.738;7.998;2024-03-17T14:21:29;1.80;;;0.70;;
1452;SDS011;720;47.738;7.998;2024-03-17T14:23:55;0.40;;;0.40;;
1452;SDS011;720;47.738;7.998;2024-03-17T14:26:21;2.10;;;1.23;;
1452;SDS011;720;47.738;7.998;2024-03-17T14:28:47;2.83;;;1.00;;
1452;SDS011;720;47.738;7.998;2024-03-17T14:31:15;2.10;;;1.00;;
1452;SDS011;720;47.738;7.998;2024-03-17T14:33:44;2.40;;;1.43;;
1452;SDS011;720;47.738;7.998;2024-03-17T14:36:10;0.50;;;0.50;;
1452;SDS011;720;47.738;7.998;2024-03-17T14:38:36;0.50;;;0.50;;
1452;SDS011;720;47.738;7.998;2024-03-17T14:41:01;0.80;;;0.50;;
1452;SDS011;720;47.738;7.998;2024-03-17T14:43:29;3.67;;;1.30;;
1452;SDS011;720;47.738;7.998;2024-03-17T14:45:55;2.00;;;0.60;;
1452;SDS011;720;47.738;7.998;2024-03-17T14:48:21;1.97;;;0.67;;
1452;SDS011;720;47.738;7.998;2024-03-17T14:50:46;2.67;;;0.67;;
1452;SDS011;720;47.738;7.998;2024-03-17T14:53:12;2.70;;;0.70;;
1452;SDS011;720;47.738;7.998;2024-03-17T14:55:38;0.80;;;0.80;;
1452;SDS011;720;47.738;7.998;2024-03-17T14:58:03;1.27;;;0.80;;
1452;SDS011;720;47.738;7.998;2024-03-17T15:00:31;1.70;;;0.80;;
1452;SDS011;720;47.738;7.998;2024-03-17T15:02:57;0.87;;;0.63;;
1452;SDS011;720;47.738;7.998;2024-03-17T15:05:23;1.47;;;0.80;;
1452;SDS011;720;47.738;7.998;2024-03-17T15:07:50;0.90;;;0.83;;
1452;SDS011;720;47.738;7.998;2024-03-17T15:10:16;1.00;;;0.80;;
1452;SDS011;720;47.738;7.998;2024-03-17T15:12:48;0.80;;;0.67;;
1452;SDS011;720;47.738;7.998;2024-03-17T15:15:14;1.90;;;0.60;;
1452;SDS011;720;47.738;7.998;2024-03-17T15:17:40;1.20;;;0.80;;
1452;SDS011;720;47.738;7.998;2024-03-17T15:20:09;0.80;;;0.77;;
1452;SDS011;720;47.738;7.998;2024-03-17T15:22:48;1.90;;;1.00;;
1452;SDS011;720;47.738;7.998;2024-03-17T15:25:14;0.80;;;0.80;;
1452;SDS011;720;47.738;7.998;2024-03-17T15:27:41;1.23;;;1.10;;
1452;SDS011;720;47.738;7.998;2024-03-17T15:30:16;2.10;;;1.30;;
1452;SDS011;720;47.738;7.998;2024-03-17T15:32:50;1.60;;;1.27;;
1452;SDS011;720;47.738;7.998;2024-03-17T15:35:22;4.37;;;1.40;;
1452;SDS011;720;47.738;7.998;2024-03-17T15:37:48;1.90;;;1.57;;
1452;SDS011;720;47.738;7.998;2024-03-17T15:40:14;2.50;;;2.00;;
1452;SDS011;720;47.738;7.998;2024-03-17T15:42:46;4.20;;;2.60;;
1452;SDS011;720;47.738;7.998;2024-03-17T15:45:13;3.20;;;2.17;;
1452;SDS011;720;47.738;7.998;2024-03-17T15:47:39;2.40;;;1.80;;
1452;SDS011;720;47.738;7.998;2024-03-17T15:50:06;3.13;;;2.90;;